Barnardsville, North Carolina
Current Conditions -  °F | °C
As of 2:54 AM on Friday 19 Dec 2014 (Local Time) from KAVL Reporting Station
Clear Clear  
Wind Chill: 27°   Ceiling: Unl
Heat Index: 36°   Visibility: 10mi
Dew Point: 26°   Wind: 15mph
Humidity: 67%   Direction: 320°NW
Pressure: 30.1"   Gusts: NA
Location:  35.78°N, 82.45°W
Report Text: KAVL 190754Z AUTO 32013KT 10SM CLR 02/M03 A3010 RMK AO2 SLP192 T00221033
Loading
Personal Weather Stations






























Interactive Weather Map New forecast layout! Learn more

10-Day Weather Forecast

Advertisements
Track Severe Weather on mobile